Amanda, Ohio
Current Conditions -  °F | °C
As of 12:53 PM on Thursday 18 Dec 2014 (Local Time) from KLHQ Reporting Station
Overcast Overcast  
Wind Chill: -6°   Ceiling: 1900
Heat Index: -2°   Visibility: 10mi
Dew Point: -7°   Wind: 6mph
Humidity: 72%   Direction: 300°WNW
Pressure: 30.22"   Gusts: NA
Location:  39.65°N, 82.74°W
Report Text: KLHQ 181753Z AUTO 30005KT 10SM OVC019 M02/M07 A3022 RMK AO2 SLP244 T10221067 11022 21022 58018
Loading
Personal Weather Stations






























Interactive Weather Map New forecast layout! Learn more

10-Day Weather Forecast

Advertisements
Track Severe Weather on mobile